createdAt,value
2022-09-02T00:02:00.899Z,40.90
2022-09-02T00:04:32.881Z,40.67
2022-09-02T00:07:04.549Z,40.95
2022-09-02T00:09:35.349Z,41.29
2022-09-02T00:12:06.672Z,41.16
2022-09-02T00:14:39.555Z,41.00
2022-09-02T00:17:10.704Z,40.77
2022-09-02T00:19:43.039Z,41.16
2022-09-02T00:22:13.715Z,40.59
2022-09-02T00:24:43.381Z,40.94
2022-09-02T00:27:14.796Z,41.11
2022-09-02T00:29:46.391Z,40.64
2022-09-02T00:32:15.863Z,40.51
2022-09-02T00:34:48.512Z,41.03
2022-09-02T00:37:20.780Z,40.92
2022-09-02T00:39:50.950Z,40.94
2022-09-02T00:42:19.616Z,40.71
2022-09-02T00:44:49.235Z,40.96
2022-09-02T00:47:17.872Z,41.08
2022-09-02T00:49:54.065Z,41.13
2022-09-02T00:52:25.956Z,40.53
2022-09-02T00:54:59.290Z,40.88
2022-09-02T00:57:32.086Z,40.89
2022-09-02T01:00:07.428Z,40.96
2022-09-02T01:02:39.091Z,40.92
2022-09-02T01:05:10.994Z,40.66
2022-09-02T01:07:41.719Z,40.78
2022-09-02T01:10:13.558Z,40.81
2022-09-02T01:12:42.451Z,40.49
2022-09-02T01:15:13.541Z,40.67
2022-09-02T01:17:44.576Z,41.08
2022-09-02T01:20:16.178Z,40.67
2022-09-02T01:22:46.691Z,40.61
2022-09-02T01:25:19.385Z,40.60
2022-09-02T01:27:48.407Z,41.06
2022-09-02T01:30:20.401Z,40.99
2022-09-02T01:32:48.805Z,40.89
2022-09-02T01:35:17.507Z,40.98
2022-09-02T01:37:55.651Z,41.03
2022-09-02T01:40:25.794Z,40.96
2022-09-02T01:42:57.247Z,41.26
2022-09-02T01:45:25.557Z,40.78
2022-09-02T01:47:53.792Z,41.09
2022-09-02T01:50:22.060Z,40.99
2022-09-02T01:52:53.037Z,41.36
2022-09-02T01:55:21.245Z,40.83
2022-09-02T01:57:51.461Z,41.10
2022-09-02T02:00:21.171Z,41.16
2022-09-02T02:02:49.286Z,40.75
2022-09-02T02:05:18.997Z,40.96
2022-09-02T02:07:49.293Z,41.17
2022-09-02T02:10:21.362Z,41.46
2022-09-02T02:12:51.751Z,41.16
2022-09-02T02:17:51.389Z,41.39
2022-09-02T02:20:21.614Z,41.23
2022-09-02T02:22:50.096Z,41.44
2022-09-02T02:25:19.748Z,41.18
2022-09-02T02:27:51.397Z,41.44
2022-09-02T02:30:22.214Z,41.65
2022-09-02T02:32:50.495Z,41.24
2022-09-02T02:35:21.227Z,41.49
2022-09-02T02:37:50.686Z,41.20
2022-09-02T02:40:24.179Z,41.54
2022-09-02T02:42:54.212Z,41.58
2022-09-02T02:45:25.981Z,41.39
2022-09-02T02:47:55.144Z,41.52
2022-09-02T02:50:25.764Z,41.66
2022-09-02T02:52:55.009Z,41.19
2022-09-02T02:55:27.202Z,41.27
2022-09-02T02:57:57.497Z,41.27
2022-09-02T03:00:28.210Z,41.93
2022-09-02T03:02:57.598Z,41.56
2022-09-02T03:05:27.416Z,41.07
2022-09-02T03:07:56.553Z,41.78
2022-09-02T03:10:27.070Z,41.20
2022-09-02T03:12:55.547Z,41.39
2022-09-02T03:15:23.905Z,41.61
2022-09-02T03:17:56.106Z,41.33
2022-09-02T03:20:25.690Z,41.71
2022-09-02T03:22:59.102Z,41.22
2022-09-02T03:25:35.574Z,41.80
2022-09-02T03:28:12.864Z,41.47
2022-09-02T03:30:42.865Z,41.85
2022-09-02T03:33:11.511Z,42.13
2022-09-02T03:35:42.120Z,41.72
2022-09-02T03:38:11.285Z,41.94
2022-09-02T03:40:42.244Z,42.05
2022-09-02T03:43:11.325Z,41.70
2022-09-02T03:45:41.817Z,41.76
2022-09-02T03:48:13.741Z,41.96
2022-09-02T03:50:44.818Z,42.07
2022-09-02T03:53:19.640Z,42.59
2022-09-02T03:55:53.609Z,42.14
2022-09-02T03:58:23.692Z,42.63
2022-09-02T04:00:53.931Z,42.54
2022-09-02T04:03:24.175Z,42.87
2022-09-02T04:05:53.371Z,42.54
2022-09-02T04:08:24.855Z,43.10
2022-09-02T04:10:56.391Z,42.35
2022-09-02T04:13:24.871Z,42.36
2022-09-02T04:15:53.103Z,42.37
2022-09-02T04:18:24.004Z,42.24
2022-09-02T04:20:54.070Z,42.62
2022-09-02T04:23:22.892Z,42.62
2022-09-02T04:25:51.544Z,42.67
2022-09-02T04:28:22.775Z,42.54
2022-09-02T04:30:53.147Z,42.66
2022-09-02T04:33:26.452Z,43.13
2022-09-02T04:35:55.279Z,43.36
2022-09-02T04:38:30.104Z,42.72
2022-09-02T04:40:59.504Z,42.98
2022-09-02T04:43:33.093Z,42.73
2022-09-02T04:46:06.710Z,43.29
2022-09-02T04:48:41.584Z,43.12
2022-09-02T04:51:16.261Z,42.76
2022-09-02T04:53:48.541Z,43.00
2022-09-02T04:56:20.060Z,42.95
2022-09-02T04:58:52.933Z,43.14
2022-09-02T05:01:26.797Z,42.52
2022-09-02T05:03:59.326Z,42.80
2022-09-02T05:06:44.145Z,43.01
2022-09-02T05:09:20.775Z,42.69
2022-09-02T05:12:08.989Z,43.25
2022-09-02T05:14:48.883Z,43.19
2022-09-02T05:17:19.122Z,43.07
2022-09-02T05:19:49.275Z,42.91
2022-09-02T05:22:18.093Z,43.74
2022-09-02T05:24:46.722Z,42.78
2022-09-02T05:27:16.552Z,43.29
2022-09-02T05:29:47.899Z,43.58
2022-09-02T05:32:19.812Z,43.44
2022-09-02T05:34:49.884Z,44.01
2022-09-02T05:37:18.100Z,43.53
2022-09-02T05:39:46.433Z,43.46
2022-09-02T05:42:16.915Z,43.79
2022-09-02T05:44:48.687Z,43.60
2022-09-02T05:47:20.455Z,43.92
2022-09-02T05:49:49.296Z,43.99
2022-09-02T05:52:18.294Z,43.60
2022-09-02T05:54:52.635Z,44.05
2022-09-02T05:57:23.070Z,44.06
2022-09-02T06:00:08.105Z,43.82
2022-09-02T06:02:43.107Z,43.77
2022-09-02T06:05:32.061Z,44.19
2022-09-02T06:08:12.385Z,44.03
2022-09-02T06:10:43.307Z,43.85
2022-09-02T06:13:15.879Z,43.73
2022-09-02T06:15:46.059Z,43.68
2022-09-02T06:18:15.536Z,43.98
2022-09-02T06:20:46.146Z,44.24
2022-09-02T06:23:16.051Z,44.25
2022-09-02T06:25:47.129Z,43.91
2022-09-02T06:28:16.618Z,44.07
2022-09-02T06:30:48.695Z,43.92
2022-09-02T06:33:22.173Z,43.55
2022-09-02T06:35:50.707Z,44.29
2022-09-02T06:38:20.876Z,43.97
2022-09-02T06:40:51.193Z,44.00
2022-09-02T06:43:24.993Z,44.03
2022-09-02T06:46:18.479Z,44.53
2022-09-02T06:48:50.156Z,44.64
2022-09-02T06:51:21.342Z,44.80
2022-09-02T06:53:50.553Z,44.69
2022-09-02T06:56:19.235Z,44.57
2022-09-02T06:58:47.363Z,44.73
2022-09-02T07:01:21.074Z,44.75
2022-09-02T07:04:07.668Z,44.43
2022-09-02T07:06:37.944Z,44.68
2022-09-02T07:09:08.496Z,44.74
2022-09-02T07:11:38.056Z,44.98
2022-09-02T07:14:09.320Z,44.44
2022-09-02T07:16:45.484Z,44.86
2022-09-02T07:19:20.387Z,44.57
2022-09-02T07:21:52.212Z,44.31
2022-09-02T07:24:26.662Z,44.83
2022-09-02T07:26:59.756Z,44.40
2022-09-02T07:29:31.980Z,44.33
2022-09-02T07:32:03.762Z,44.72
2022-09-02T07:34:33.882Z,44.43
2022-09-02T07:37:09.961Z,44.38
2022-09-02T07:39:41.680Z,44.87
2022-09-02T07:42:14.452Z,45.12
2022-09-02T07:44:44.742Z,45.42
2022-09-02T07:47:15.722Z,44.93
2022-09-02T07:52:42.416Z,45.36
2022-09-02T07:55:15.188Z,44.88
2022-09-02T07:57:48.680Z,44.68
2022-09-02T08:00:21.106Z,45.01
2022-09-02T08:02:56.085Z,44.93
2022-09-02T08:05:33.369Z,44.81
2022-09-02T08:08:04.812Z,44.88
2022-09-02T08:10:37.071Z,45.12
2022-09-02T08:13:06.837Z,45.22
2022-09-02T08:15:36.982Z,44.85
2022-09-02T08:18:08.551Z,45.01
2022-09-02T08:20:45.537Z,44.59
2022-09-02T08:23:25.693Z,44.35
2022-09-02T08:26:07.737Z,44.96
2022-09-02T08:28:40.326Z,44.33
2022-09-02T08:31:11.364Z,44.42
2022-09-02T08:33:43.445Z,44.41
2022-09-02T08:36:15.046Z,44.88
2022-09-02T08:38:45.650Z,44.30
2022-09-02T08:41:23.486Z,44.21
2022-09-02T08:43:57.263Z,44.90
2022-09-02T08:46:27.624Z,44.18
2022-09-02T08:49:05.798Z,44.15
2022-09-02T08:51:38.435Z,44.40
2022-09-02T08:54:12.107Z,43.93
2022-09-02T08:56:45.376Z,44.22
2022-09-02T08:59:17.254Z,43.49
2022-09-02T09:01:53.288Z,43.60
2022-09-02T09:04:34.056Z,43.79
2022-09-02T09:07:29.380Z,43.11
2022-09-02T09:10:11.780Z,42.71
2022-09-02T09:13:05.341Z,41.60
2022-09-02T09:15:45.913Z,42.40
2022-09-02T09:18:18.229Z,42.45
2022-09-02T09:20:48.625Z,41.60
2022-09-02T09:23:28.459Z,41.38
2022-09-02T09:26:07.940Z,41.63
2022-09-02T09:28:42.840Z,41.59
2022-09-02T09:31:17.331Z,41.72
2022-09-02T09:33:58.920Z,40.90
2022-09-02T09:36:56.371Z,40.79
2022-09-02T09:39:30.619Z,40.44
2022-09-02T09:42:01.689Z,40.34
2022-09-02T09:44:40.958Z,41.09
2022-09-02T09:47:18.053Z,40.58
2022-09-02T09:49:50.257Z,40.88
2022-09-02T09:52:28.730Z,40.40
2022-09-02T09:55:12.666Z,40.83
2022-09-02T09:57:46.069Z,39.88
2022-09-02T10:00:27.825Z,38.63
2022-09-02T10:03:01.832Z,38.13
2022-09-02T10:05:38.464Z,37.76
2022-09-02T10:08:23.127Z,38.31
2022-09-02T10:11:01.485Z,38.59
2022-09-02T10:13:31.906Z,37.46
2022-09-02T10:16:43.287Z,38.35
2022-09-02T10:19:18.952Z,39.06
2022-09-02T10:22:04.158Z,38.25
2022-09-02T10:24:47.668Z,38.42
2022-09-02T10:27:18.089Z,37.41
2022-09-02T10:29:56.161Z,37.31
2022-09-02T10:32:38.537Z,36.69
2022-09-02T10:35:17.791Z,38.05
2022-09-02T10:38:06.539Z,38.08
2022-09-02T10:40:52.342Z,38.16
2022-09-02T10:43:37.498Z,37.20
2022-09-02T10:46:11.270Z,36.53
2022-09-02T10:48:56.319Z,36.91
2022-09-02T10:51:37.408Z,35.78
2022-09-02T10:54:23.383Z,35.82
2022-09-02T10:57:02.382Z,35.84
2022-09-02T10:59:42.072Z,37.23
2022-09-02T11:02:21.846Z,36.33
2022-09-02T11:04:58.511Z,36.46
2022-09-02T11:07:39.883Z,35.33
2022-09-02T11:10:15.538Z,34.92
2022-09-02T11:12:54.795Z,35.69
2022-09-02T11:15:35.996Z,34.14
2022-09-02T11:18:17.251Z,34.91
2022-09-02T11:20:54.933Z,35.34
2022-09-02T11:23:37.058Z,35.38
2022-09-02T11:26:13.846Z,35.05
2022-09-02T11:28:53.220Z,34.95
2022-09-02T11:31:29.503Z,33.06
2022-09-02T11:34:05.278Z,33.38
2022-09-02T11:36:41.568Z,34.93
2022-09-02T11:39:21.886Z,34.21
2022-09-02T11:42:35.564Z,32.90
2022-09-02T11:45:25.915Z,32.78
2022-09-02T11:48:30.302Z,32.76
2022-09-02T11:53:54.904Z,32.53
2022-09-02T11:56:31.090Z,32.19
2022-09-02T11:59:06.497Z,32.77
2022-09-02T12:01:43.810Z,33.04
2022-09-02T12:04:58.512Z,32.73
2022-09-02T12:07:32.821Z,33.47
2022-09-02T12:10:06.964Z,33.09
2022-09-02T12:13:08.531Z,31.44
2022-09-02T12:15:42.595Z,32.33
2022-09-02T12:18:31.635Z,32.17
2022-09-02T12:21:15.954Z,31.18
2022-09-02T12:24:25.663Z,31.39
2022-09-02T12:27:28.507Z,31.83
2022-09-02T12:30:02.308Z,31.00
2022-09-02T12:33:08.446Z,30.29
2022-09-02T12:35:57.627Z,30.59
2022-09-02T12:38:36.208Z,30.06
2022-09-02T12:41:45.321Z,29.80
2022-09-02T12:44:26.941Z,29.59
2022-09-02T12:47:06.377Z,29.55
2022-09-02T12:49:49.207Z,29.21
2022-09-02T12:52:49.073Z,29.73
2022-09-02T12:55:23.686Z,29.38
2022-09-02T12:57:57.243Z,28.88
2022-09-02T13:00:31.338Z,28.85
2022-09-02T13:03:13.705Z,28.10
2022-09-02T13:05:55.024Z,27.94
2022-09-02T13:09:03.317Z,28.33
2022-09-02T13:12:07.524Z,27.44
2022-09-02T13:14:55.994Z,27.69
2022-09-02T13:17:36.497Z,27.17
2022-09-02T13:20:34.652Z,27.28
2022-09-02T13:23:19.070Z,27.39
2022-09-02T13:26:27.506Z,26.91
2022-09-02T13:29:36.922Z,26.69
2022-09-02T13:32:15.760Z,26.77
2022-09-02T13:34:45.906Z,26.33
2022-09-02T13:37:29.373Z,26.36
2022-09-02T13:39:57.485Z,26.53
2022-09-02T13:42:32.829Z,26.49
2022-09-02T13:45:16.088Z,26.10
2022-09-02T13:47:46.206Z,25.78
2022-09-02T13:50:18.496Z,25.75
2022-09-02T13:55:40.569Z,25.66
2022-09-02T13:58:25.243Z,25.94
2022-09-02T14:01:01.738Z,25.18
2022-09-02T14:03:32.663Z,25.41
2022-09-02T14:06:03.238Z,24.89
2022-09-02T14:08:32.679Z,24.03
2022-09-02T14:11:07.331Z,24.16
2022-09-02T14:13:38.114Z,24.37
2022-09-02T14:16:34.342Z,24.75
2022-09-02T14:19:11.458Z,24.88
2022-09-02T14:21:46.904Z,25.28
2022-09-02T14:24:17.393Z,25.18
2022-09-02T14:26:47.774Z,25.40
2022-09-02T14:29:18.823Z,24.04
2022-09-02T14:31:47.811Z,24.61
2022-09-02T14:34:36.137Z,25.25
2022-09-02T14:37:19.272Z,25.02
2022-09-02T14:40:11.740Z,25.16
2022-09-02T14:42:48.741Z,24.66
2022-09-02T14:45:27.197Z,24.67
2022-09-02T14:47:56.061Z,24.80
2022-09-02T14:50:29.384Z,25.10
2022-09-02T14:53:03.698Z,24.46
2022-09-02T14:55:50.116Z,24.65
2022-09-02T14:58:18.739Z,24.95
2022-09-02T15:00:52.464Z,24.81
2022-09-02T15:03:21.414Z,24.81
2022-09-02T15:05:50.432Z,24.10
2022-09-02T15:08:18.525Z,23.97
2022-09-02T15:10:46.915Z,24.65
2022-09-02T15:13:20.168Z,24.29
2022-09-02T15:15:50.591Z,24.41
2022-09-02T15:18:19.214Z,24.63
2022-09-02T15:20:47.245Z,24.48
2022-09-02T15:23:16.548Z,24.65
2022-09-02T15:25:44.969Z,24.96
2022-09-02T15:28:15.802Z,24.61
2022-09-02T15:30:46.545Z,24.77
2022-09-02T15:33:17.703Z,24.72
2022-09-02T15:35:48.326Z,24.01
2022-09-02T15:38:18.997Z,24.75
2022-09-02T15:40:48.813Z,25.21
2022-09-02T15:43:20.045Z,25.60
2022-09-02T15:45:56.377Z,24.83
2022-09-02T15:48:29.311Z,24.62
2022-09-02T15:51:03.703Z,24.32
2022-09-02T15:53:34.215Z,24.72
2022-09-02T15:56:02.969Z,25.37
2022-09-02T15:58:33.236Z,24.89
2022-09-02T16:01:09.374Z,25.23
2022-09-02T16:03:40.676Z,25.10
2022-09-02T16:06:17.984Z,24.99
2022-09-02T16:08:46.794Z,24.98
2022-09-02T16:11:16.949Z,25.27
2022-09-02T16:13:46.361Z,25.33
2022-09-02T16:16:15.577Z,25.83
2022-09-02T16:18:45.929Z,25.61
2022-09-02T16:21:13.935Z,26.43
2022-09-02T16:23:42.053Z,26.10
2022-09-02T16:26:12.561Z,26.44
2022-09-02T16:28:42.685Z,26.09
2022-09-02T16:31:12.377Z,26.67
2022-09-02T16:33:42.409Z,26.91
2022-09-02T16:36:14.470Z,26.90
2022-09-02T16:38:52.904Z,26.64
2022-09-02T16:41:27.829Z,26.75
2022-09-02T16:44:01.290Z,26.92
2022-09-02T16:46:32.097Z,27.32
2022-09-02T16:49:02.334Z,27.39
2022-09-02T16:51:35.749Z,27.92
2022-09-02T16:54:07.962Z,27.10
2022-09-02T16:56:38.891Z,27.35
2022-09-02T16:59:12.188Z,27.33
2022-09-02T17:01:45.985Z,27.39
2022-09-02T17:04:16.328Z,27.94
2022-09-02T17:06:49.866Z,28.16
2022-09-02T17:09:19.927Z,28.64
2022-09-02T17:11:49.513Z,28.86
2022-09-02T17:14:21.293Z,29.00
2022-09-02T17:16:53.199Z,29.37
2022-09-02T17:19:31.395Z,29.00
2022-09-02T17:22:04.023Z,29.76
2022-09-02T17:24:33.192Z,29.45
2022-09-02T17:27:03.369Z,29.43
2022-09-02T17:29:50.926Z,29.65
2022-09-02T17:32:20.992Z,30.11
2022-09-02T17:34:53.333Z,30.40
2022-09-02T17:37:23.998Z,29.89
2022-09-02T17:39:53.626Z,29.94
2022-09-02T17:42:23.068Z,30.25
2022-09-02T17:44:54.316Z,30.33
2022-09-02T17:47:24.662Z,30.42
2022-09-02T17:49:54.981Z,30.29
2022-09-02T17:52:28.473Z,30.59
2022-09-02T17:54:58.282Z,30.55
2022-09-02T17:57:42.971Z,30.67
2022-09-02T18:00:14.656Z,30.76
2022-09-02T18:03:14.150Z,30.76
2022-09-02T18:06:03.965Z,30.66
2022-09-02T18:08:47.600Z,30.83
2022-09-02T18:11:16.859Z,30.92
2022-09-02T18:13:58.927Z,30.70
2022-09-02T18:16:36.859Z,30.51
2022-09-02T18:19:16.880Z,30.76
2022-09-02T18:22:07.550Z,31.20
2022-09-02T18:25:03.277Z,31.21
2022-09-02T18:27:45.159Z,31.44
2022-09-02T18:30:22.127Z,31.69
2022-09-02T18:33:19.651Z,31.87
2022-09-02T18:35:56.885Z,31.98
2022-09-02T18:38:39.506Z,31.82
2022-09-02T18:41:24.682Z,32.14
2022-09-02T18:44:16.559Z,32.16
2022-09-02T18:46:54.789Z,32.23
2022-09-02T18:49:26.482Z,32.67
2022-09-02T18:52:03.058Z,32.31
2022-09-02T18:54:40.052Z,32.37
2022-09-02T18:57:12.251Z,32.60
2022-09-02T18:59:51.389Z,33.01
2022-09-02T19:02:32.312Z,32.52
2022-09-02T19:05:05.783Z,32.78
2022-09-02T19:07:54.015Z,32.59
2022-09-02T19:10:26.162Z,32.70
2022-09-02T19:12:57.097Z,32.65
2022-09-02T19:15:25.956Z,32.87
2022-09-02T19:17:54.159Z,33.03
2022-09-02T19:20:22.901Z,32.87
2022-09-02T19:22:54.819Z,33.08
2022-09-02T19:25:25.945Z,32.84
2022-09-02T19:27:58.252Z,33.12
2022-09-02T19:30:26.208Z,32.98
2022-09-02T19:32:56.155Z,32.93
2022-09-02T19:35:27.479Z,33.23
2022-09-02T19:37:56.215Z,33.26
2022-09-02T19:40:28.650Z,33.26
2022-09-02T19:42:58.033Z,33.29
2022-09-02T19:45:29.367Z,33.31
2022-09-02T19:48:07.912Z,32.99
2022-09-02T19:50:37.904Z,33.22
2022-09-02T19:53:07.175Z,33.26
2022-09-02T19:55:35.933Z,33.27
2022-09-02T19:58:05.467Z,32.84
2022-09-02T20:00:34.405Z,33.13
2022-09-02T20:03:03.313Z,32.75
2022-09-02T20:05:31.512Z,33.32
2022-09-02T20:07:59.537Z,32.84
2022-09-02T20:10:29.825Z,33.09
2022-09-02T20:12:59.136Z,32.94
2022-09-02T20:15:30.866Z,33.03
2022-09-02T20:18:10.253Z,32.89
2022-09-02T20:20:42.901Z,32.78
2022-09-02T20:23:17.627Z,32.58
2022-09-02T20:26:08.720Z,32.43
2022-09-02T20:28:54.336Z,32.40
2022-09-02T20:31:46.384Z,32.71
2022-09-02T20:34:30.089Z,32.69
2022-09-02T20:37:10.860Z,32.38
2022-09-02T20:39:56.226Z,32.57
2022-09-02T20:42:46.806Z,32.33
2022-09-02T20:45:24.500Z,32.77
2022-09-02T20:48:10.546Z,32.77
2022-09-02T20:50:49.019Z,32.56
2022-09-02T20:54:01.300Z,32.66
2022-09-02T20:56:44.333Z,32.70
2022-09-02T20:59:28.577Z,32.42
2022-09-02T21:02:07.733Z,32.15
2022-09-02T21:04:45.404Z,32.35
2022-09-02T21:07:20.198Z,32.09
2022-09-02T21:10:01.582Z,32.27
2022-09-02T21:12:42.968Z,32.54
2022-09-02T21:15:30.213Z,31.63
2022-09-02T21:18:12.074Z,31.70
2022-09-02T21:20:51.018Z,31.77
2022-09-02T21:23:28.991Z,32.00
2022-09-02T21:26:05.813Z,31.66
2022-09-02T21:28:43.594Z,31.84
2022-09-02T21:31:20.416Z,31.19
2022-09-02T21:34:01.917Z,31.83
2022-09-02T21:36:37.452Z,31.37
2022-09-02T21:39:13.087Z,31.57
2022-09-02T21:41:47.406Z,31.34
2022-09-02T21:44:24.574Z,31.82
2022-09-02T21:47:10.702Z,31.51
2022-09-02T21:49:55.290Z,31.77
2022-09-02T21:52:41.763Z,31.85
2022-09-02T21:55:27.622Z,31.59
2022-09-02T21:58:19.661Z,31.51
2022-09-02T22:00:55.701Z,31.58
2022-09-02T22:03:40.837Z,32.08
2022-09-02T22:06:18.605Z,31.53
2022-09-02T22:09:11.565Z,31.64
2022-09-02T22:11:50.953Z,31.27
2022-09-02T22:14:29.755Z,31.67
2022-09-02T22:16:59.921Z,31.71
2022-09-02T22:19:32.389Z,31.49
2022-09-02T22:22:08.840Z,31.40
2022-09-02T22:24:40.638Z,31.66
2022-09-02T22:27:15.078Z,31.85
2022-09-02T22:29:49.333Z,31.72
2022-09-02T22:32:21.014Z,31.83
2022-09-02T22:34:58.390Z,32.46
2022-09-02T22:37:36.930Z,32.10
2022-09-02T22:40:11.366Z,32.16
2022-09-02T22:42:41.772Z,31.86
2022-09-02T22:45:30.085Z,32.12
2022-09-02T22:48:21.763Z,31.91
2022-09-02T22:51:16.070Z,32.24
2022-09-02T22:53:48.007Z,32.03
2022-09-02T22:56:28.846Z,32.71
2022-09-02T22:59:24.288Z,32.71
2022-09-02T23:02:01.543Z,32.53
2022-09-02T23:04:40.160Z,32.10
2022-09-02T23:07:08.309Z,32.70
2022-09-02T23:09:37.727Z,32.60
2022-09-02T23:12:26.071Z,32.46
2022-09-02T23:15:11.513Z,32.62
2022-09-02T23:17:52.094Z,32.09
2022-09-02T23:20:28.343Z,32.70
2022-09-02T23:23:15.422Z,32.74
2022-09-02T23:26:00.589Z,33.11
2022-09-02T23:28:43.755Z,32.82
2022-09-02T23:31:22.633Z,32.80
2022-09-02T23:34:07.795Z,32.79
2022-09-02T23:36:48.185Z,32.79
2022-09-02T23:39:38.177Z,32.66
2022-09-02T23:42:11.489Z,33.15
2022-09-02T23:44:46.127Z,32.96
2022-09-02T23:47:37.854Z,33.09
2022-09-02T23:50:21.923Z,33.14
2022-09-02T23:52:59.405Z,33.23
2022-09-02T23:55:42.574Z,33.29
2022-09-02T23:58:30.263Z,32.87
